createdAt,value
2023-05-04T00:01:12.924Z,4.90
2023-05-04T00:03:41.010Z,4.40
2023-05-04T00:06:09.206Z,3.40
2023-05-04T00:08:37.295Z,2.70
2023-05-04T00:11:05.565Z,3.00
2023-05-04T00:13:33.636Z,3.30
2023-05-04T00:16:01.640Z,9.10
2023-05-04T00:18:29.706Z,9.90
2023-05-04T00:20:57.746Z,8.90
2023-05-04T00:23:25.693Z,4.80
2023-05-04T00:25:53.683Z,3.00
2023-05-04T00:28:21.863Z,2.90
2023-05-04T00:30:50.034Z,3.40
2023-05-04T00:33:18.002Z,3.00
2023-05-04T00:35:46.075Z,2.70
2023-05-04T00:38:16.755Z,2.80
2023-05-04T00:40:45.572Z,6.10
2023-05-04T00:43:13.991Z,16.40
2023-05-04T00:45:42.668Z,12.60
2023-05-04T00:48:11.319Z,5.90
2023-05-04T00:50:40.776Z,4.50
2023-05-04T00:53:11.590Z,9.00
2023-05-04T00:55:41.162Z,10.20
2023-05-04T00:58:09.469Z,7.70
2023-05-04T01:00:37.780Z,4.20
2023-05-04T01:03:06.281Z,6.50
2023-05-04T01:05:39.416Z,6.40
2023-05-04T01:08:15.389Z,5.80
2023-05-04T01:11:00.868Z,4.70
2023-05-04T01:13:29.138Z,5.10
2023-05-04T01:15:57.738Z,4.40
2023-05-04T01:18:26.518Z,3.90
2023-05-04T01:20:54.893Z,4.00
2023-05-04T01:23:23.699Z,6.20
2023-05-04T01:26:09.979Z,5.50
2023-05-04T01:28:43.506Z,5.60
2023-05-04T01:31:14.987Z,5.20
2023-05-04T01:33:44.644Z,5.30
2023-05-04T01:36:13.424Z,4.60
2023-05-04T01:38:42.562Z,5.00
2023-05-04T01:41:10.659Z,4.70
2023-05-04T01:43:39.996Z,5.00
2023-05-04T01:46:08.145Z,4.40
2023-05-04T01:48:36.850Z,4.60
2023-05-04T01:51:05.364Z,4.00
2023-05-04T01:53:33.303Z,4.20
2023-05-04T01:56:01.485Z,3.70
2023-05-04T01:58:30.677Z,3.70
2023-05-04T02:00:59.673Z,3.30
2023-05-04T02:03:29.264Z,4.20
2023-05-04T02:05:57.554Z,4.00
2023-05-04T02:08:25.627Z,3.40
2023-05-04T02:10:53.696Z,3.80
2023-05-04T02:13:22.595Z,4.40
2023-05-04T02:15:50.897Z,4.70
2023-05-04T02:18:19.051Z,4.10
2023-05-04T02:20:46.994Z,3.40
2023-05-04T02:23:15.696Z,3.90
2023-05-04T02:25:43.880Z,3.70
2023-05-04T02:28:12.152Z,3.50
2023-05-04T02:30:41.868Z,4.70
2023-05-04T02:33:10.650Z,5.10
2023-05-04T02:35:38.881Z,4.30
2023-05-04T02:38:07.212Z,4.50
2023-05-04T02:40:35.258Z,4.70
2023-05-04T02:43:03.199Z,4.50
2023-05-04T02:45:31.222Z,4.60
2023-05-04T02:47:59.478Z,4.10
2023-05-04T02:50:27.566Z,4.70
2023-05-04T02:52:55.634Z,4.40
2023-05-04T02:55:23.596Z,4.30
2023-05-04T02:57:51.681Z,4.30
2023-05-04T03:00:20.478Z,4.20
2023-05-04T03:02:48.570Z,5.30
2023-05-04T03:05:16.921Z,5.60
2023-05-04T03:07:45.089Z,3.90
2023-05-04T03:10:13.110Z,3.60
2023-05-04T03:12:41.568Z,3.80
2023-05-04T03:15:09.942Z,3.50
2023-05-04T03:17:38.524Z,3.90
2023-05-04T03:20:08.169Z,3.50
2023-05-04T03:22:36.464Z,3.70
2023-05-04T03:25:05.345Z,3.60
2023-05-04T03:27:33.347Z,5.30
2023-05-04T03:30:01.326Z,4.90
2023-05-04T03:32:30.047Z,4.90
2023-05-04T03:34:58.694Z,5.90
2023-05-04T03:37:26.861Z,6.40
2023-05-04T03:39:54.945Z,6.70
2023-05-04T03:42:23.029Z,7.50
2023-05-04T03:44:51.193Z,7.80
2023-05-04T03:47:19.455Z,8.20
2023-05-04T03:49:48.246Z,9.20
2023-05-04T03:52:16.430Z,9.70
2023-05-04T03:54:44.590Z,8.90
2023-05-04T03:57:12.768Z,8.10
2023-05-04T03:59:41.260Z,7.40
2023-05-04T04:02:09.494Z,6.80
2023-05-04T04:04:37.943Z,5.10
2023-05-04T04:07:06.388Z,4.60
2023-05-04T04:09:34.452Z,5.40
2023-05-04T04:12:02.535Z,5.10
2023-05-04T04:14:31.230Z,6.30
2023-05-04T04:16:59.134Z,5.80
2023-05-04T04:19:27.259Z,5.60
2023-05-04T04:21:55.643Z,6.20
2023-05-04T04:24:23.607Z,6.10
2023-05-04T04:26:52.091Z,5.40
2023-05-04T04:29:20.161Z,4.70
2023-05-04T04:31:48.178Z,4.50
2023-05-04T04:34:16.414Z,4.40
2023-05-04T04:36:45.203Z,5.70
2023-05-04T04:39:13.505Z,4.40
2023-05-04T04:41:41.761Z,4.30
2023-05-04T04:44:09.739Z,4.70
2023-05-04T04:46:37.961Z,5.00
2023-05-04T04:49:06.213Z,5.50
2023-05-04T04:51:34.323Z,5.00
2023-05-04T04:54:02.462Z,5.40
2023-05-04T04:56:30.591Z,5.60
2023-05-04T04:58:58.741Z,5.50
2023-05-04T05:01:27.490Z,5.20
2023-05-04T05:03:55.383Z,5.20
2023-05-04T05:06:24.214Z,5.00
2023-05-04T05:08:52.971Z,5.40
2023-05-04T05:11:21.077Z,4.70
2023-05-04T05:13:49.262Z,4.40
2023-05-04T05:16:17.352Z,5.40
2023-05-04T05:18:45.589Z,5.70
2023-05-04T05:21:14.784Z,5.20
2023-05-04T05:23:42.862Z,4.90
2023-05-04T05:26:10.989Z,5.40
2023-05-04T05:28:39.435Z,5.50
2023-05-04T05:31:07.578Z,5.50
2023-05-04T05:33:35.966Z,4.80
2023-05-04T05:36:06.156Z,5.40
2023-05-04T05:38:34.259Z,5.20
2023-05-04T05:41:02.336Z,5.40
2023-05-04T05:43:30.610Z,6.40
2023-05-04T05:45:58.705Z,7.20
2023-05-04T05:48:26.963Z,6.30
2023-05-04T05:50:55.231Z,7.10
2023-05-04T05:53:23.307Z,7.10
2023-05-04T05:55:51.252Z,8.30
2023-05-04T05:58:19.369Z,8.60
2023-05-04T06:00:48.265Z,9.40
2023-05-04T06:03:16.289Z,8.50
2023-05-04T06:05:44.493Z,7.60
2023-05-04T06:08:12.565Z,8.50
2023-05-04T06:10:40.736Z,7.30
2023-05-04T06:13:08.951Z,6.30
2023-05-04T06:15:37.485Z,7.40
2023-05-04T06:18:05.609Z,6.80
2023-05-04T06:20:33.833Z,6.60
2023-05-04T06:23:02.028Z,6.20
2023-05-04T06:25:30.190Z,6.40
2023-05-04T06:27:58.363Z,6.10
2023-05-04T06:30:26.731Z,6.00
2023-05-04T06:32:54.904Z,5.90
2023-05-04T06:35:23.030Z,5.90
2023-05-04T06:40:25.408Z,5.90
2023-05-04T06:42:53.581Z,5.60
2023-05-04T06:45:21.941Z,6.10
2023-05-04T06:47:49.938Z,6.30
2023-05-04T06:50:18.186Z,5.60
2023-05-04T06:52:46.772Z,6.10
2023-05-04T06:55:15.132Z,5.50
2023-05-04T06:57:43.095Z,5.70
2023-05-04T07:00:12.092Z,5.90
2023-05-04T07:02:40.266Z,6.00
2023-05-04T07:05:08.855Z,5.40
2023-05-04T07:07:37.647Z,6.50
2023-05-04T07:10:06.576Z,5.40
2023-05-04T07:12:34.924Z,7.70
2023-05-04T07:15:03.502Z,7.50
2023-05-04T07:17:32.618Z,7.50
2023-05-04T07:20:05.964Z,6.70
2023-05-04T07:22:34.408Z,7.90
2023-05-04T07:25:03.286Z,7.20
2023-05-04T07:27:31.516Z,7.60
2023-05-04T07:29:59.604Z,7.60
2023-05-04T07:32:27.839Z,7.70
2023-05-04T07:34:56.673Z,6.90
2023-05-04T07:37:24.858Z,6.70
2023-05-04T07:39:52.821Z,6.70
2023-05-04T07:42:20.891Z,6.40
2023-05-04T07:44:49.058Z,7.90
2023-05-04T07:47:17.024Z,8.20
2023-05-04T07:49:45.305Z,7.90
2023-05-04T07:52:13.379Z,8.00
2023-05-04T07:54:41.656Z,7.60
2023-05-04T07:57:09.836Z,6.70
2023-05-04T07:59:38.008Z,7.10
2023-05-04T08:02:06.120Z,7.20
2023-05-04T08:04:34.246Z,6.60
2023-05-04T08:07:02.337Z,5.70
2023-05-04T08:09:30.602Z,3.30
2023-05-04T08:11:58.673Z,3.50
2023-05-04T08:14:26.755Z,5.40
2023-05-04T08:16:55.159Z,3.50
2023-05-04T08:19:23.295Z,3.10
2023-05-04T08:21:51.380Z,3.10
2023-05-04T08:24:19.552Z,3.30
2023-05-04T08:26:59.704Z,3.20
2023-05-04T08:29:37.312Z,2.60
2023-05-04T08:32:06.272Z,3.20
2023-05-04T08:34:36.001Z,2.70
2023-05-04T08:37:04.564Z,3.60
2023-05-04T08:39:32.653Z,2.80
2023-05-04T08:42:00.746Z,2.90
2023-05-04T08:44:29.629Z,3.10
2023-05-04T08:46:58.022Z,3.20
2023-05-04T08:49:27.913Z,3.00
2023-05-04T08:51:57.619Z,2.90
2023-05-04T08:54:27.440Z,2.40
2023-05-04T08:56:57.192Z,3.00
2023-05-04T08:59:27.794Z,2.80
2023-05-04T09:01:59.380Z,3.50
2023-05-04T09:04:29.336Z,4.10
2023-05-04T09:06:58.761Z,3.20
2023-05-04T09:09:29.020Z,3.10
2023-05-04T09:11:59.103Z,3.00
2023-05-04T09:14:33.666Z,3.00
2023-05-04T09:17:03.195Z,3.00
2023-05-04T09:19:34.904Z,3.20
2023-05-04T09:22:14.631Z,3.20
2023-05-04T09:24:43.715Z,2.90
2023-05-04T09:27:13.224Z,3.00
2023-05-04T09:29:42.115Z,3.10
2023-05-04T09:32:17.038Z,2.40
2023-05-04T09:34:52.556Z,2.60
2023-05-04T09:37:22.201Z,2.10
2023-05-04T09:39:53.885Z,2.00
2023-05-04T09:42:24.032Z,2.30
2023-05-04T09:45:08.931Z,1.90
2023-05-04T09:47:41.668Z,1.90
2023-05-04T09:50:19.772Z,1.90
2023-05-04T09:52:50.621Z,2.00
2023-05-04T09:55:20.214Z,1.90
2023-05-04T09:57:50.684Z,1.70
2023-05-04T10:00:19.736Z,2.10
2023-05-04T10:02:48.551Z,2.20
2023-05-04T10:05:18.864Z,1.70
2023-05-04T10:07:47.309Z,2.00
2023-05-04T10:10:15.879Z,1.80
2023-05-04T10:12:45.684Z,1.80
2023-05-04T10:15:16.153Z,2.00
2023-05-04T10:17:50.226Z,1.90
2023-05-04T10:20:44.318Z,1.60
2023-05-04T10:23:37.888Z,1.50
2023-05-04T10:27:03.445Z,1.70
2023-05-04T10:29:36.074Z,1.40
2023-05-04T10:32:04.684Z,1.70
2023-05-04T10:34:34.786Z,1.60
2023-05-04T10:37:04.250Z,1.80
2023-05-04T10:39:34.309Z,2.10
2023-05-04T10:42:04.588Z,2.10
2023-05-04T10:44:37.415Z,1.60
2023-05-04T10:47:07.672Z,1.70
2023-05-04T10:49:36.580Z,1.80
2023-05-04T10:52:18.520Z,1.80
2023-05-04T10:54:47.104Z,2.40
2023-05-04T10:57:17.687Z,1.80
2023-05-04T10:59:57.302Z,1.90
2023-05-04T11:02:27.139Z,1.90
2023-05-04T11:05:04.845Z,2.10
2023-05-04T11:07:38.390Z,2.00
2023-05-04T11:10:09.480Z,1.90
2023-05-04T11:12:38.162Z,2.00
2023-05-04T11:15:12.333Z,1.80
2023-05-04T11:17:46.688Z,1.40
2023-05-04T11:20:26.249Z,1.80
2023-05-04T11:22:55.057Z,1.50
2023-05-04T11:25:30.617Z,1.60
2023-05-04T11:27:58.979Z,1.50
2023-05-04T11:30:35.201Z,1.80
2023-05-04T11:33:11.864Z,1.50
2023-05-04T11:35:42.360Z,1.40
2023-05-04T11:38:11.271Z,1.50
2023-05-04T11:40:41.487Z,1.70
2023-05-04T11:43:11.406Z,1.80
2023-05-04T11:45:41.533Z,1.50
2023-05-04T11:48:10.276Z,1.80
2023-05-04T11:50:38.645Z,1.70
2023-05-04T11:53:12.394Z,1.40
2023-05-04T11:55:42.063Z,1.20
2023-05-04T11:58:12.198Z,1.50
2023-05-04T12:00:47.284Z,1.90
2023-05-04T12:03:18.212Z,1.60
2023-05-04T12:05:52.252Z,1.70
2023-05-04T12:08:31.559Z,1.20
2023-05-04T12:11:16.281Z,1.50
2023-05-04T12:13:45.766Z,1.80
2023-05-04T12:16:19.186Z,1.60
2023-05-04T12:18:48.377Z,1.80
2023-05-04T12:21:21.687Z,1.70
2023-05-04T12:23:50.005Z,2.20
2023-05-04T12:26:19.748Z,2.00
2023-05-04T12:28:48.005Z,1.70
2023-05-04T12:31:16.322Z,1.80
2023-05-04T12:33:45.685Z,1.80
2023-05-04T12:36:14.028Z,2.20
2023-05-04T12:38:41.996Z,1.30
2023-05-04T12:41:11.580Z,1.60
2023-05-04T12:43:39.793Z,1.70
2023-05-04T12:46:07.970Z,2.10
2023-05-04T12:48:36.340Z,2.10
2023-05-04T12:51:05.237Z,1.60
2023-05-04T12:53:33.509Z,1.50
2023-05-04T12:56:02.702Z,1.60
2023-05-04T12:58:31.237Z,1.20
2023-05-04T13:00:59.944Z,1.30
2023-05-04T13:03:28.426Z,1.40
2023-05-04T13:05:57.881Z,1.70
2023-05-04T13:08:26.150Z,1.90
2023-05-04T13:10:54.517Z,2.00
2023-05-04T13:13:26.360Z,1.70
2023-05-04T13:15:54.734Z,1.70
2023-05-04T13:18:27.644Z,2.10
2023-05-04T13:20:56.843Z,1.40
2023-05-04T13:23:24.938Z,5.20
2023-05-04T13:25:53.181Z,2.40
2023-05-04T13:28:21.471Z,1.60
2023-05-04T13:30:49.538Z,1.60
2023-05-04T13:33:28.831Z,1.40
2023-05-04T13:35:59.413Z,2.60
2023-05-04T13:38:28.547Z,3.10
2023-05-04T13:40:56.770Z,1.70
2023-05-04T13:43:25.165Z,1.30
2023-05-04T13:45:53.420Z,1.90
2023-05-04T13:48:21.611Z,1.80
2023-05-04T13:50:49.659Z,1.60
2023-05-04T13:53:18.037Z,1.60
2023-05-04T13:55:46.431Z,1.80
2023-05-04T13:58:14.511Z,1.70
2023-05-04T14:00:43.449Z,1.50
2023-05-04T14:03:11.666Z,1.90
2023-05-04T14:05:40.162Z,2.00
2023-05-04T14:08:08.171Z,2.20
2023-05-04T14:10:37.706Z,2.60
2023-05-04T14:13:05.915Z,1.90
2023-05-04T14:15:34.026Z,1.90
2023-05-04T14:18:02.699Z,1.70
2023-05-04T14:20:32.366Z,2.00
2023-05-04T14:23:00.480Z,2.20
2023-05-04T14:25:28.818Z,2.10
2023-05-04T14:27:56.897Z,2.10
2023-05-04T14:30:26.813Z,2.10
2023-05-04T14:32:55.688Z,2.00
2023-05-04T14:35:24.382Z,1.90
2023-05-04T14:37:52.555Z,1.80
2023-05-04T14:40:20.840Z,2.10
2023-05-04T14:42:48.909Z,1.50
2023-05-04T14:45:17.449Z,1.70
2023-05-04T14:47:45.693Z,1.80
2023-05-04T14:50:14.121Z,2.10
2023-05-04T14:52:42.629Z,1.80
2023-05-04T14:55:10.942Z,2.10
2023-05-04T14:57:39.128Z,2.30
2023-05-04T15:00:09.515Z,1.70
2023-05-04T15:02:38.968Z,2.00
2023-05-04T15:05:09.820Z,2.00
2023-05-04T15:07:38.454Z,1.60
2023-05-04T15:10:08.497Z,1.70
2023-05-04T15:12:38.010Z,1.50
2023-05-04T15:15:06.964Z,1.70
2023-05-04T15:17:35.163Z,1.80
2023-05-04T15:20:03.998Z,1.50
2023-05-04T15:22:32.507Z,2.00
2023-05-04T15:25:02.002Z,1.90
2023-05-04T15:27:30.281Z,1.50
2023-05-04T15:29:58.238Z,1.60
2023-05-04T15:32:26.395Z,2.10
2023-05-04T15:35:04.581Z,1.80
2023-05-04T15:37:34.344Z,2.20
2023-05-04T15:40:03.037Z,1.80
2023-05-04T15:42:31.307Z,3.10
2023-05-04T15:44:59.464Z,2.10
2023-05-04T15:47:27.567Z,2.50
2023-05-04T15:49:55.936Z,2.10
2023-05-04T15:52:24.407Z,1.90
2023-05-04T15:54:52.393Z,2.10
2023-05-04T15:57:20.759Z,2.20
2023-05-04T15:59:49.938Z,2.10
2023-05-04T16:02:18.388Z,2.40
2023-05-04T16:04:46.655Z,2.30
2023-05-04T16:07:14.987Z,3.00
2023-05-04T16:09:43.059Z,2.20
2023-05-04T16:12:11.347Z,2.20
2023-05-04T16:14:40.330Z,2.60
2023-05-04T16:17:08.571Z,2.40
2023-05-04T16:19:36.680Z,1.90
2023-05-04T16:22:04.887Z,1.80
2023-05-04T16:24:34.565Z,1.90
2023-05-04T16:27:03.574Z,2.10
2023-05-04T16:29:31.621Z,1.90
2023-05-04T16:32:00.002Z,2.10
2023-05-04T16:34:28.154Z,2.40
2023-05-04T16:36:56.219Z,2.10
2023-05-04T16:39:30.183Z,1.80
2023-05-04T16:41:59.022Z,2.00
2023-05-04T16:44:27.331Z,2.10
2023-05-04T16:46:55.610Z,1.70
2023-05-04T16:49:24.117Z,2.30
2023-05-04T16:51:56.571Z,2.50
2023-05-04T16:54:24.736Z,1.70
2023-05-04T16:56:53.116Z,2.80
2023-05-04T16:59:21.289Z,10.00
2023-05-04T17:01:49.292Z,4.10
2023-05-04T17:04:17.769Z,4.40
2023-05-04T17:06:46.021Z,1.80
2023-05-04T17:09:14.097Z,2.10
2023-05-04T17:11:42.222Z,3.00
2023-05-04T17:14:11.186Z,2.80
2023-05-04T17:16:39.872Z,3.10
2023-05-04T17:19:10.798Z,3.40
2023-05-04T17:21:39.679Z,2.80
2023-05-04T17:24:07.852Z,3.30
2023-05-04T17:26:36.224Z,3.70
2023-05-04T17:29:04.708Z,3.40
2023-05-04T17:31:32.808Z,3.80
2023-05-04T17:34:00.956Z,3.30
2023-05-04T17:36:29.017Z,3.30
2023-05-04T17:38:57.088Z,3.60
2023-05-04T17:41:25.418Z,2.70
2023-05-04T17:43:54.294Z,3.00
2023-05-04T17:46:22.549Z,2.70
2023-05-04T17:48:52.249Z,2.50
2023-05-04T17:51:22.913Z,2.70
2023-05-04T17:53:51.093Z,3.10
2023-05-04T17:56:21.484Z,3.10
2023-05-04T17:58:49.440Z,3.00
2023-05-04T18:01:17.890Z,2.70
2023-05-04T18:03:46.606Z,2.40
2023-05-04T18:06:15.481Z,2.80
2023-05-04T18:08:43.577Z,2.40
2023-05-04T18:11:12.268Z,2.20
2023-05-04T18:13:40.438Z,2.80
2023-05-04T18:16:08.979Z,2.50
2023-05-04T18:18:37.304Z,2.80
2023-05-04T18:21:05.784Z,4.50
2023-05-04T18:23:33.884Z,4.10
2023-05-04T18:26:02.468Z,4.00
2023-05-04T18:28:30.718Z,4.50
2023-05-04T18:30:58.989Z,3.70
2023-05-04T18:33:27.079Z,3.30
2023-05-04T18:35:55.340Z,3.70
2023-05-04T18:38:23.416Z,3.50
2023-05-04T18:40:53.745Z,3.70
2023-05-04T18:43:21.828Z,3.70
2023-05-04T18:45:50.023Z,5.10
2023-05-04T18:48:18.299Z,4.10
2023-05-04T18:50:57.558Z,3.70
2023-05-04T18:53:26.747Z,4.70
2023-05-04T18:56:01.709Z,4.20
2023-05-04T18:58:30.103Z,3.80
2023-05-04T19:00:58.717Z,5.20
2023-05-04T19:03:27.011Z,4.80
2023-05-04T19:05:55.766Z,5.10
2023-05-04T19:08:24.035Z,5.30
2023-05-04T19:10:52.519Z,5.50
2023-05-04T19:13:21.102Z,5.70
2023-05-04T19:15:49.282Z,5.60
2023-05-04T19:18:17.747Z,5.80
2023-05-04T19:20:46.445Z,5.60
2023-05-04T19:23:14.621Z,6.30
2023-05-04T19:25:43.404Z,5.70
2023-05-04T19:28:12.005Z,5.60
2023-05-04T19:30:40.479Z,5.50
2023-05-04T19:33:08.792Z,6.70
2023-05-04T19:35:37.433Z,7.10
2023-05-04T19:38:08.391Z,7.30
2023-05-04T19:40:36.752Z,6.40
2023-05-04T19:43:05.839Z,6.30
2023-05-04T19:45:34.225Z,6.70
2023-05-04T19:48:05.044Z,6.90
2023-05-04T19:50:33.440Z,7.00
2023-05-04T19:53:01.524Z,6.80
2023-05-04T19:55:29.794Z,6.60
2023-05-04T19:57:58.182Z,6.30
2023-05-04T20:00:27.063Z,7.10
2023-05-04T20:02:55.534Z,6.60
2023-05-04T20:05:23.815Z,6.50
2023-05-04T20:07:51.883Z,5.90
2023-05-04T20:10:20.056Z,5.80
2023-05-04T20:12:48.188Z,5.30
2023-05-04T20:15:16.620Z,6.10
2023-05-04T20:17:44.685Z,6.60
2023-05-04T20:20:19.159Z,6.80
2023-05-04T20:22:49.231Z,6.00
2023-05-04T20:25:17.477Z,6.10
2023-05-04T20:27:49.160Z,6.30
2023-05-04T20:30:18.164Z,6.20
2023-05-04T20:32:48.539Z,5.50
2023-05-04T20:35:17.766Z,5.40
2023-05-04T20:37:45.950Z,5.30
2023-05-04T20:40:16.787Z,5.10
2023-05-04T20:42:44.963Z,5.70
2023-05-04T20:45:13.541Z,5.20
2023-05-04T20:47:43.142Z,4.30
2023-05-04T20:50:12.190Z,4.00
2023-05-04T20:52:40.426Z,4.70
2023-05-04T20:55:09.730Z,5.10
2023-05-04T20:57:37.849Z,5.10
2023-05-04T21:00:07.520Z,5.40
2023-05-04T21:02:36.067Z,5.70
2023-05-04T21:05:07.316Z,5.70
2023-05-04T21:07:35.823Z,5.20
2023-05-04T21:10:04.310Z,4.80
2023-05-04T21:12:32.383Z,5.00
2023-05-04T21:15:00.603Z,5.20
2023-05-04T21:17:28.689Z,5.30
2023-05-04T21:19:56.790Z,5.30
2023-05-04T21:22:25.063Z,7.10
2023-05-04T21:24:53.136Z,7.30
2023-05-04T21:27:21.414Z,6.20
2023-05-04T21:29:49.489Z,8.20
2023-05-04T21:32:17.653Z,7.00
2023-05-04T21:34:52.585Z,6.60
2023-05-04T21:37:20.770Z,7.10
2023-05-04T21:39:54.643Z,6.90
2023-05-04T21:42:23.784Z,6.20
2023-05-04T21:44:58.267Z,6.70
2023-05-04T21:47:28.201Z,5.00
2023-05-04T21:49:56.441Z,5.50
2023-05-04T21:52:24.547Z,6.70
2023-05-04T21:54:52.726Z,6.30
2023-05-04T21:57:21.012Z,5.70
2023-05-04T21:59:49.829Z,5.70
2023-05-04T22:02:18.226Z,5.60
2023-05-04T22:04:46.461Z,5.00
2023-05-04T22:07:15.748Z,4.50
2023-05-04T22:09:43.838Z,4.40
2023-05-04T22:12:11.911Z,4.20
2023-05-04T22:14:42.181Z,4.30
2023-05-04T22:17:10.596Z,4.70
2023-05-04T22:19:38.873Z,4.90
2023-05-04T22:22:07.161Z,4.30
2023-05-04T22:24:35.221Z,5.70
2023-05-04T22:27:03.614Z,5.20
2023-05-04T22:29:34.866Z,5.60
2023-05-04T22:32:03.032Z,6.30
2023-05-04T22:34:31.098Z,5.30
2023-05-04T22:36:59.080Z,5.40
2023-05-04T22:39:27.156Z,5.40
2023-05-04T22:41:55.616Z,5.00
2023-05-04T22:44:23.788Z,5.40
2023-05-04T22:46:51.973Z,4.80
2023-05-04T22:49:20.137Z,4.50
2023-05-04T22:51:48.309Z,5.10
2023-05-04T22:54:16.281Z,4.60
2023-05-04T22:56:44.362Z,4.70
2023-05-04T22:59:12.305Z,4.80
2023-05-04T23:01:43.305Z,5.00
2023-05-04T23:04:12.059Z,5.50
2023-05-04T23:06:40.020Z,7.00
2023-05-04T23:09:07.990Z,6.50
2023-05-04T23:11:35.958Z,5.20
2023-05-04T23:14:04.043Z,6.40
2023-05-04T23:16:32.283Z,6.90
2023-05-04T23:19:00.311Z,6.80
2023-05-04T23:21:28.455Z,5.40
2023-05-04T23:23:56.538Z,5.90
2023-05-04T23:26:24.583Z,5.60
2023-05-04T23:28:52.769Z,6.20
2023-05-04T23:31:21.098Z,6.60
2023-05-04T23:33:49.222Z,7.40
2023-05-04T23:36:17.302Z,8.20
2023-05-04T23:38:45.471Z,7.90
2023-05-04T23:41:13.535Z,7.90
2023-05-04T23:43:41.720Z,8.20
2023-05-04T23:46:09.842Z,7.90
2023-05-04T23:48:37.967Z,9.60
2023-05-04T23:51:06.457Z,8.50
2023-05-04T23:53:35.483Z,8.40
2023-05-04T23:56:06.316Z,9.60
2023-05-04T23:58:35.189Z,9.70
